createdAt,value
2023-02-19T00:02:18.143Z,10.20
2023-02-19T00:04:45.835Z,10.20
2023-02-19T00:07:13.583Z,10.20
2023-02-19T00:09:41.244Z,10.20
2023-02-19T00:12:08.957Z,10.10
2023-02-19T00:14:36.583Z,10.10
2023-02-19T00:17:04.227Z,10.10
2023-02-19T00:19:31.971Z,10.10
2023-02-19T00:21:59.760Z,10.10
2023-02-19T00:24:27.365Z,10.10
2023-02-19T00:26:54.976Z,10.10
2023-02-19T00:29:22.765Z,10.10
2023-02-19T00:31:51.325Z,10.10
2023-02-19T00:34:19.426Z,10.10
2023-02-19T00:36:47.103Z,10.10
2023-02-19T00:39:16.478Z,10.00
2023-02-19T00:41:45.589Z,10.10
2023-02-19T00:44:14.572Z,10.10
2023-02-19T00:46:47.737Z,10.00
2023-02-19T00:49:23.007Z,10.00
2023-02-19T00:51:52.452Z,10.00
2023-02-19T00:54:22.699Z,10.10
2023-02-19T00:56:51.112Z,10.00
2023-02-19T00:59:19.032Z,10.00
2023-02-19T01:01:46.783Z,10.00
2023-02-19T01:04:16.403Z,10.00
2023-02-19T01:06:44.148Z,10.10
2023-02-19T01:09:11.961Z,10.10
2023-02-19T01:11:40.024Z,10.10
2023-02-19T01:14:09.829Z,10.10
2023-02-19T01:16:37.973Z,10.10
2023-02-19T01:19:05.796Z,10.10
2023-02-19T01:21:33.444Z,10.10
2023-02-19T01:24:01.230Z,10.10
2023-02-19T01:26:32.435Z,10.10
2023-02-19T01:29:01.696Z,10.10
2023-02-19T01:31:30.445Z,10.10
2023-02-19T01:34:01.628Z,10.10
2023-02-19T01:36:32.992Z,10.10
2023-02-19T01:39:04.076Z,10.10
2023-02-19T01:41:36.336Z,10.10
2023-02-19T01:44:27.989Z,10.10
2023-02-19T01:46:58.802Z,10.10
2023-02-19T01:49:36.156Z,10.10
2023-02-19T01:52:26.767Z,10.10
2023-02-19T01:54:56.364Z,10.10
2023-02-19T01:57:30.110Z,10.10
2023-02-19T02:00:05.985Z,10.10
2023-02-19T02:02:42.797Z,10.00
2023-02-19T02:05:35.428Z,10.00
2023-02-19T02:08:22.704Z,10.00
2023-02-19T02:10:52.094Z,10.00
2023-02-19T02:13:20.139Z,10.00
2023-02-19T02:16:04.351Z,10.00
2023-02-19T02:18:52.884Z,10.00
2023-02-19T02:21:53.463Z,10.00
2023-02-19T02:24:49.303Z,10.00
2023-02-19T02:27:40.083Z,10.00
2023-02-19T02:30:18.178Z,10.00
2023-02-19T02:33:19.919Z,10.00
2023-02-19T02:35:59.419Z,10.00
2023-02-19T02:38:33.147Z,10.00
2023-02-19T02:41:01.067Z,10.00
2023-02-19T02:43:30.234Z,10.00
2023-02-19T02:45:58.504Z,10.00
2023-02-19T02:48:41.396Z,10.00
2023-02-19T02:51:28.466Z,10.00
2023-02-19T02:54:45.590Z,10.00
2023-02-19T02:57:16.559Z,10.00
2023-02-19T02:59:49.305Z,10.00
2023-02-19T03:02:26.803Z,10.00
2023-02-19T03:05:37.160Z,9.90
2023-02-19T03:08:15.515Z,9.90
2023-02-19T03:11:28.680Z,9.90
2023-02-19T03:14:30.114Z,9.90
2023-02-19T03:17:27.732Z,9.90
2023-02-19T03:19:58.744Z,9.90
2023-02-19T03:22:32.514Z,9.90
2023-02-19T03:25:53.837Z,9.90
2023-02-19T03:28:53.593Z,9.90
2023-02-19T03:31:24.913Z,9.90
2023-02-19T03:33:58.694Z,9.90
2023-02-19T03:36:40.798Z,9.80
2023-02-19T03:39:11.914Z,9.90
2023-02-19T03:42:15.394Z,9.90
2023-02-19T03:45:03.592Z,9.90
2023-02-19T03:47:49.058Z,9.90
2023-02-19T03:50:52.405Z,9.80
2023-02-19T03:53:29.852Z,9.80
2023-02-19T03:56:22.346Z,9.80
2023-02-19T03:59:15.349Z,9.90
2023-02-19T04:01:56.208Z,9.90
2023-02-19T04:04:34.173Z,9.90
2023-02-19T04:07:02.125Z,10.00
2023-02-19T04:09:47.485Z,10.00
2023-02-19T04:12:19.676Z,10.00
2023-02-19T04:15:07.355Z,10.00
2023-02-19T04:17:39.629Z,10.10
2023-02-19T04:20:10.710Z,10.10
2023-02-19T04:22:40.493Z,10.10
2023-02-19T04:25:09.184Z,10.00
2023-02-19T04:27:39.424Z,10.00
2023-02-19T04:30:10.895Z,10.00
2023-02-19T04:32:38.767Z,10.00
2023-02-19T04:35:06.723Z,10.00
2023-02-19T04:37:34.326Z,10.00
2023-02-19T04:40:02.161Z,9.90
2023-02-19T04:42:29.913Z,10.00
2023-02-19T04:44:57.599Z,10.00
2023-02-19T04:47:25.349Z,10.00
2023-02-19T04:49:53.182Z,9.90
2023-02-19T04:52:20.786Z,9.90
2023-02-19T04:54:49.236Z,9.90
2023-02-19T04:57:16.858Z,9.90
2023-02-19T04:59:44.603Z,9.90
2023-02-19T05:02:12.310Z,9.90
2023-02-19T05:04:40.028Z,9.90
2023-02-19T05:07:08.694Z,9.90
2023-02-19T05:09:36.392Z,10.00
2023-02-19T05:12:04.143Z,9.90
2023-02-19T05:14:31.962Z,9.90
2023-02-19T05:16:59.621Z,9.90
2023-02-19T05:19:27.489Z,9.90
2023-02-19T05:21:55.108Z,9.80
2023-02-19T05:24:24.403Z,9.80
2023-02-19T05:26:52.111Z,9.90
2023-02-19T05:29:19.794Z,9.80
2023-02-19T05:31:47.649Z,9.80
2023-02-19T05:34:15.473Z,9.80
2023-02-19T05:36:43.079Z,9.80
2023-02-19T05:39:12.345Z,9.80
2023-02-19T05:41:40.086Z,9.90
2023-02-19T05:44:07.897Z,9.90
2023-02-19T05:46:35.634Z,9.90
2023-02-19T05:49:04.256Z,9.90
2023-02-19T05:51:32.249Z,9.90
2023-02-19T05:53:59.865Z,9.90
2023-02-19T05:56:37.680Z,9.90
2023-02-19T05:59:14.479Z,9.90
2023-02-19T06:01:42.554Z,9.90
2023-02-19T06:04:12.351Z,9.90
2023-02-19T06:06:41.681Z,9.90
2023-02-19T06:09:10.662Z,9.90
2023-02-19T06:11:39.638Z,9.90
2023-02-19T06:14:07.678Z,9.80
2023-02-19T06:16:35.301Z,9.80
2023-02-19T06:19:04.414Z,9.80
2023-02-19T06:21:32.088Z,9.90
2023-02-19T06:24:04.627Z,9.80
2023-02-19T06:26:32.588Z,9.80
2023-02-19T06:29:00.269Z,9.80
2023-02-19T06:31:28.152Z,9.80
2023-02-19T06:33:55.922Z,9.80
2023-02-19T06:36:24.246Z,9.80
2023-02-19T06:38:52.265Z,9.80
2023-02-19T06:41:20.006Z,9.70
2023-02-19T06:43:47.736Z,9.70
2023-02-19T06:46:15.549Z,9.70
2023-02-19T06:48:44.959Z,9.70
2023-02-19T06:51:19.590Z,9.70
2023-02-19T06:53:47.282Z,9.60
2023-02-19T06:56:37.896Z,9.60
2023-02-19T06:59:09.106Z,9.60
2023-02-19T07:01:37.864Z,9.60
2023-02-19T07:04:07.592Z,9.60
2023-02-19T07:06:36.227Z,9.50
2023-02-19T07:09:06.801Z,9.60
2023-02-19T07:11:36.563Z,9.50
2023-02-19T07:14:10.202Z,9.50
2023-02-19T07:16:39.403Z,9.50
2023-02-19T07:19:07.070Z,9.50
2023-02-19T07:21:37.762Z,9.50
2023-02-19T07:24:06.280Z,9.50
2023-02-19T07:26:34.570Z,9.60
2023-02-19T07:29:02.516Z,9.60
2023-02-19T07:31:30.286Z,9.60
2023-02-19T07:33:58.000Z,9.60
2023-02-19T07:36:25.832Z,9.60
2023-02-19T07:38:55.809Z,9.60
2023-02-19T07:41:24.603Z,9.60
2023-02-19T07:43:53.668Z,9.60
2023-02-19T07:46:22.578Z,9.60
2023-02-19T07:48:50.231Z,9.60
2023-02-19T07:51:20.651Z,9.70
2023-02-19T07:53:52.917Z,9.70
2023-02-19T07:56:21.206Z,9.70
2023-02-19T07:58:49.577Z,9.70
2023-02-19T08:01:42.050Z,9.70
2023-02-19T08:04:12.997Z,9.70
2023-02-19T08:06:41.534Z,9.80
2023-02-19T08:09:09.541Z,9.80
2023-02-19T08:11:55.523Z,9.80
2023-02-19T08:14:27.380Z,9.80
2023-02-19T08:16:55.530Z,9.80
2023-02-19T08:19:23.563Z,9.80
2023-02-19T08:21:51.316Z,9.80
2023-02-19T08:24:18.976Z,9.80
2023-02-19T08:26:46.720Z,9.80
2023-02-19T08:29:14.393Z,9.90
2023-02-19T08:31:42.390Z,9.90
2023-02-19T08:34:10.105Z,9.90
2023-02-19T08:36:38.335Z,9.90
2023-02-19T08:39:05.918Z,9.90
2023-02-19T08:41:33.612Z,9.90
2023-02-19T08:44:01.261Z,9.90
2023-02-19T08:46:28.914Z,9.90
2023-02-19T08:48:56.575Z,9.90
2023-02-19T08:51:24.267Z,9.90
2023-02-19T08:53:51.985Z,9.90
2023-02-19T08:56:19.704Z,9.90
2023-02-19T08:58:47.665Z,9.90
2023-02-19T09:01:18.387Z,9.90
2023-02-19T09:03:46.444Z,9.90
2023-02-19T09:06:17.885Z,10.00
2023-02-19T09:08:45.948Z,10.00
2023-02-19T09:11:14.513Z,9.90
2023-02-19T09:13:43.569Z,9.90
2023-02-19T09:16:12.202Z,9.90
2023-02-19T09:18:40.686Z,9.90
2023-02-19T09:21:08.550Z,9.90
2023-02-19T09:23:37.536Z,9.90
2023-02-19T09:26:09.374Z,9.90
2023-02-19T09:28:40.217Z,10.00
2023-02-19T09:31:14.176Z,10.00
2023-02-19T09:33:44.481Z,10.00
2023-02-19T09:36:13.668Z,10.10
2023-02-19T09:38:42.171Z,10.10
2023-02-19T09:41:33.087Z,10.20
2023-02-19T09:44:04.520Z,10.10
2023-02-19T09:46:44.605Z,10.20
2023-02-19T09:49:17.598Z,10.10
2023-02-19T09:51:52.637Z,10.10
2023-02-19T09:54:26.419Z,10.10
2023-02-19T09:56:56.590Z,10.10
2023-02-19T09:59:36.942Z,10.20
2023-02-19T10:02:17.827Z,10.20
2023-02-19T10:04:47.329Z,10.20
2023-02-19T10:07:38.253Z,10.30
2023-02-19T10:10:14.828Z,10.30
2023-02-19T10:12:53.278Z,10.30
2023-02-19T10:15:36.400Z,10.30
2023-02-19T10:18:05.553Z,10.40
2023-02-19T10:20:33.902Z,10.30
2023-02-19T10:23:07.885Z,10.30
2023-02-19T10:25:36.457Z,10.30
2023-02-19T10:28:06.343Z,10.30
2023-02-19T10:30:36.219Z,10.30
2023-02-19T10:33:16.264Z,10.20
2023-02-19T10:36:06.400Z,10.10
2023-02-19T10:38:38.236Z,10.20
2023-02-19T10:41:18.565Z,10.20
2023-02-19T10:43:55.654Z,10.20
2023-02-19T10:46:31.360Z,10.10
2023-02-19T10:49:01.921Z,10.10
2023-02-19T10:51:40.562Z,10.10
2023-02-19T10:54:20.802Z,10.10
2023-02-19T10:56:48.598Z,10.10
2023-02-19T10:59:28.418Z,10.10
2023-02-19T11:02:00.786Z,10.10
2023-02-19T11:04:38.125Z,10.10
2023-02-19T11:07:17.097Z,10.00
2023-02-19T11:09:49.739Z,10.10
2023-02-19T11:12:26.626Z,10.10
2023-02-19T11:14:55.014Z,10.10
2023-02-19T11:17:30.583Z,10.10
2023-02-19T11:20:00.776Z,10.10
2023-02-19T11:22:46.925Z,10.00
2023-02-19T11:25:14.660Z,10.00
2023-02-19T11:28:07.953Z,10.00
2023-02-19T11:30:42.363Z,10.00
2023-02-19T11:33:25.432Z,10.10
2023-02-19T11:36:18.002Z,10.10
2023-02-19T11:38:45.810Z,10.20
2023-02-19T11:42:09.309Z,10.10
2023-02-19T11:45:03.931Z,10.00
2023-02-19T11:48:31.770Z,9.90
2023-02-19T11:51:46.100Z,9.90
2023-02-19T11:54:58.254Z,9.80
2023-02-19T11:58:09.573Z,9.90
2023-02-19T12:00:54.268Z,9.90
2023-02-19T12:04:00.031Z,9.90
2023-02-19T12:06:55.070Z,10.00
2023-02-19T12:09:26.656Z,10.00
2023-02-19T12:12:29.076Z,10.10
2023-02-19T12:15:15.520Z,10.10
2023-02-19T12:18:12.970Z,10.00
2023-02-19T12:21:29.156Z,10.00
2023-02-19T12:24:07.669Z,10.00
2023-02-19T12:27:12.588Z,10.10
2023-02-19T12:30:04.324Z,10.00
2023-02-19T12:33:03.311Z,9.90
2023-02-19T12:35:48.782Z,9.90
2023-02-19T12:38:35.433Z,9.90
2023-02-19T12:41:34.853Z,9.90
2023-02-19T12:44:17.363Z,9.90
2023-02-19T12:46:53.243Z,9.80
2023-02-19T12:49:47.106Z,9.80
2023-02-19T12:52:28.686Z,9.60
2023-02-19T12:55:03.537Z,9.40
2023-02-19T12:57:37.055Z,9.30
2023-02-19T13:00:41.703Z,9.20
2023-02-19T13:03:20.997Z,9.20
2023-02-19T13:06:03.373Z,9.10
2023-02-19T13:09:06.793Z,9.10
2023-02-19T13:12:45.737Z,9.10
2023-02-19T13:15:24.010Z,8.90
2023-02-19T13:17:56.104Z,8.80
2023-02-19T13:20:32.704Z,8.70
2023-02-19T13:23:45.253Z,8.70
2023-02-19T13:26:43.165Z,8.70
2023-02-19T13:29:41.556Z,8.80
2023-02-19T13:32:52.191Z,8.80
2023-02-19T13:35:39.175Z,8.90
2023-02-19T13:38:12.466Z,9.00
2023-02-19T13:40:43.452Z,9.00
2023-02-19T13:43:42.940Z,9.00
2023-02-19T13:46:14.705Z,9.10
2023-02-19T13:48:44.529Z,9.10
2023-02-19T13:51:18.839Z,9.00
2023-02-19T13:53:48.240Z,9.00
2023-02-19T13:56:36.593Z,8.90
2023-02-19T13:59:36.228Z,9.00
2023-02-19T14:02:03.982Z,9.00
2023-02-19T14:04:50.420Z,9.00
2023-02-19T14:07:18.122Z,9.00
2023-02-19T14:09:47.426Z,9.00
2023-02-19T14:12:16.059Z,9.00
2023-02-19T14:15:25.465Z,9.10
2023-02-19T14:17:55.271Z,9.10
2023-02-19T14:20:35.121Z,9.10
2023-02-19T14:23:24.310Z,9.10
2023-02-19T14:25:58.401Z,9.10
2023-02-19T14:28:30.860Z,9.10
2023-02-19T14:31:16.430Z,9.20
2023-02-19T14:33:52.817Z,9.20
2023-02-19T14:36:50.174Z,9.20
2023-02-19T14:39:37.827Z,9.20
2023-02-19T14:42:15.425Z,9.10
2023-02-19T14:45:06.581Z,9.10
2023-02-19T14:47:37.122Z,9.10
2023-02-19T14:50:19.762Z,9.30
2023-02-19T14:52:54.239Z,9.30
2023-02-19T14:55:42.895Z,9.40
2023-02-19T14:58:28.702Z,9.30
2023-02-19T15:00:56.601Z,9.20
2023-02-19T15:03:35.486Z,9.20
2023-02-19T15:06:06.974Z,9.30
2023-02-19T15:08:45.404Z,9.30
2023-02-19T15:11:21.024Z,9.30
2023-02-19T15:13:58.380Z,9.30
2023-02-19T15:16:29.415Z,9.30
2023-02-19T15:19:00.056Z,9.30
2023-02-19T15:21:31.694Z,9.40
2023-02-19T15:24:06.097Z,9.30
2023-02-19T15:26:41.284Z,9.30
2023-02-19T15:29:19.343Z,9.30
2023-02-19T15:31:52.881Z,9.30
2023-02-19T15:34:29.591Z,9.30
2023-02-19T15:37:02.160Z,9.30
2023-02-19T15:39:47.445Z,9.20
2023-02-19T15:42:24.395Z,9.30
2023-02-19T15:45:09.479Z,9.30
2023-02-19T15:47:41.544Z,9.30
2023-02-19T15:50:17.863Z,9.30
2023-02-19T15:53:07.067Z,9.30
2023-02-19T15:55:55.768Z,9.30
2023-02-19T15:58:32.166Z,9.30
2023-02-19T16:01:05.256Z,9.20
2023-02-19T16:03:33.273Z,9.20
2023-02-19T16:06:16.607Z,9.20
2023-02-19T16:09:02.123Z,9.20
2023-02-19T16:11:40.345Z,9.10
2023-02-19T16:14:37.117Z,9.10
2023-02-19T16:17:10.509Z,9.10
2023-02-19T16:19:55.165Z,9.10
2023-02-19T16:22:26.753Z,9.00
2023-02-19T16:24:59.025Z,9.00
2023-02-19T16:27:39.379Z,8.90
2023-02-19T16:30:10.604Z,8.80
2023-02-19T16:32:38.275Z,8.70
2023-02-19T16:35:36.809Z,8.60
2023-02-19T16:38:14.616Z,8.60
2023-02-19T16:41:08.666Z,8.60
2023-02-19T16:43:41.998Z,8.50
2023-02-19T16:46:12.095Z,8.50
2023-02-19T16:48:40.647Z,8.50
2023-02-19T16:51:17.369Z,8.50
2023-02-19T16:53:45.099Z,8.40
2023-02-19T16:56:18.625Z,8.30
2023-02-19T16:58:46.279Z,8.20
2023-02-19T17:01:14.330Z,8.20
2023-02-19T17:03:42.431Z,8.10
2023-02-19T17:06:11.842Z,8.10
2023-02-19T17:08:44.360Z,8.10
2023-02-19T17:11:15.684Z,8.10
2023-02-19T17:13:45.958Z,8.00
2023-02-19T17:16:21.157Z,7.90
2023-02-19T17:18:49.626Z,7.90
2023-02-19T17:21:27.448Z,7.80
2023-02-19T17:23:56.742Z,7.80
2023-02-19T17:26:28.687Z,7.80
2023-02-19T17:29:00.801Z,7.70
2023-02-19T17:31:28.784Z,7.70
2023-02-19T17:33:56.517Z,7.70
2023-02-19T17:36:30.716Z,7.60
2023-02-19T17:39:01.799Z,7.60
2023-02-19T17:41:30.205Z,7.50
2023-02-19T17:43:57.926Z,7.40
2023-02-19T17:46:27.582Z,7.40
2023-02-19T17:48:56.093Z,7.40
2023-02-19T17:51:24.063Z,7.30
2023-02-19T17:53:51.851Z,7.30
2023-02-19T17:56:24.275Z,7.30
2023-02-19T17:58:52.340Z,7.30
2023-02-19T18:01:20.552Z,7.20
2023-02-19T18:03:48.569Z,7.20
2023-02-19T18:06:16.302Z,7.20
2023-02-19T18:08:52.676Z,7.10
2023-02-19T18:11:22.508Z,7.10
2023-02-19T18:13:51.800Z,7.10
2023-02-19T18:16:19.905Z,7.10
2023-02-19T18:18:47.615Z,7.10
2023-02-19T18:21:15.519Z,7.00
2023-02-19T18:23:43.357Z,7.00
2023-02-19T18:26:11.801Z,6.90
2023-02-19T18:28:39.931Z,6.90
2023-02-19T18:31:07.940Z,6.90
2023-02-19T18:33:35.693Z,6.90
2023-02-19T18:36:04.378Z,6.80
2023-02-19T18:38:32.005Z,6.80
2023-02-19T18:41:00.013Z,6.80
2023-02-19T18:43:27.625Z,6.70
2023-02-19T18:45:55.437Z,6.60
2023-02-19T18:48:23.117Z,6.50
2023-02-19T18:50:50.755Z,6.50
2023-02-19T18:53:18.382Z,6.50
2023-02-19T18:55:46.229Z,6.50
2023-02-19T18:58:13.978Z,6.50
2023-02-19T19:00:41.744Z,6.50
2023-02-19T19:03:09.474Z,6.40
2023-02-19T19:05:37.218Z,6.40
2023-02-19T19:08:05.208Z,6.30
2023-02-19T19:10:32.852Z,6.40
2023-02-19T19:13:00.512Z,6.40
2023-02-19T19:15:28.550Z,6.40
2023-02-19T19:17:56.341Z,6.30
2023-02-19T19:20:24.070Z,6.20
2023-02-19T19:22:53.230Z,6.30
2023-02-19T19:25:22.993Z,6.20
2023-02-19T19:27:54.958Z,6.20
2023-02-19T19:30:23.142Z,6.20
2023-02-19T19:32:52.489Z,6.20
2023-02-19T19:35:21.847Z,6.20
2023-02-19T19:37:49.807Z,6.10
2023-02-19T19:40:18.694Z,6.10
2023-02-19T19:42:46.933Z,6.00
2023-02-19T19:45:15.414Z,6.00
2023-02-19T19:47:43.192Z,6.00
2023-02-19T19:50:13.162Z,6.00
2023-02-19T19:52:41.299Z,6.10
2023-02-19T19:55:09.613Z,6.10
2023-02-19T19:57:39.098Z,6.00
2023-02-19T20:00:13.953Z,6.00
2023-02-19T20:02:41.682Z,5.90
2023-02-19T20:05:09.412Z,5.90
2023-02-19T20:07:37.096Z,5.90
2023-02-19T20:10:07.276Z,5.90
2023-02-19T20:12:34.981Z,5.80
2023-02-19T20:15:02.696Z,5.70
2023-02-19T20:17:30.609Z,5.60
2023-02-19T20:19:58.255Z,5.50
2023-02-19T20:22:26.404Z,5.50
2023-02-19T20:24:55.844Z,5.50
2023-02-19T20:27:24.060Z,5.50
2023-02-19T20:29:51.692Z,5.50
2023-02-19T20:32:19.559Z,5.50
2023-02-19T20:34:48.416Z,5.50
2023-02-19T20:37:16.145Z,5.50
2023-02-19T20:39:44.079Z,5.60
2023-02-19T20:42:16.729Z,5.60
2023-02-19T20:44:45.023Z,5.70
2023-02-19T20:47:12.748Z,5.70
2023-02-19T20:49:46.363Z,5.70
2023-02-19T20:52:16.714Z,5.70
2023-02-19T20:54:44.950Z,5.70
2023-02-19T20:57:14.535Z,5.70
2023-02-19T20:59:44.215Z,5.70
2023-02-19T21:02:20.625Z,5.70
2023-02-19T21:04:48.743Z,5.70
2023-02-19T21:07:16.800Z,5.80
2023-02-19T21:09:44.479Z,5.80
2023-02-19T21:12:12.611Z,5.70
2023-02-19T21:14:41.217Z,5.70
2023-02-19T21:17:08.945Z,5.70
2023-02-19T21:19:36.638Z,5.70
2023-02-19T21:22:04.463Z,5.70
2023-02-19T21:24:32.839Z,5.70
2023-02-19T21:27:00.625Z,5.70
2023-02-19T21:29:28.355Z,5.80
2023-02-19T21:31:57.532Z,5.80
2023-02-19T21:34:29.944Z,5.80
2023-02-19T21:36:58.235Z,5.80
2023-02-19T21:39:28.394Z,5.80
2023-02-19T21:41:58.663Z,5.80
2023-02-19T21:44:26.594Z,5.80
2023-02-19T21:46:54.320Z,5.70
2023-02-19T21:49:22.192Z,5.70
2023-02-19T21:51:50.416Z,5.70
2023-02-19T21:54:27.277Z,5.70
2023-02-19T21:56:55.034Z,5.70
2023-02-19T21:59:23.414Z,5.60
2023-02-19T22:01:51.149Z,5.60
2023-02-19T22:04:22.108Z,5.60
2023-02-19T22:06:50.165Z,5.60
2023-02-19T22:09:17.768Z,5.70
2023-02-19T22:11:45.402Z,5.70
2023-02-19T22:14:13.146Z,5.60
2023-02-19T22:16:40.869Z,5.70
2023-02-19T22:19:10.049Z,5.60
2023-02-19T22:21:43.418Z,5.60
2023-02-19T22:24:20.277Z,5.60
2023-02-19T22:26:50.623Z,5.60
2023-02-19T22:29:19.444Z,5.60
2023-02-19T22:31:47.175Z,5.50
2023-02-19T22:34:15.618Z,5.50
2023-02-19T22:36:43.894Z,5.50
2023-02-19T22:39:24.937Z,5.50
2023-02-19T22:41:53.744Z,5.50
2023-02-19T22:44:21.497Z,5.50
2023-02-19T22:46:55.175Z,5.40
2023-02-19T22:49:23.992Z,5.40
2023-02-19T22:52:01.242Z,5.40
2023-02-19T22:54:28.867Z,5.40
2023-02-19T22:56:56.619Z,5.40
2023-02-19T22:59:24.616Z,5.40
2023-02-19T23:01:53.274Z,5.50
2023-02-19T23:04:22.800Z,5.50
2023-02-19T23:06:50.959Z,5.50
2023-02-19T23:09:27.255Z,5.50
2023-02-19T23:12:11.198Z,5.60
2023-02-19T23:14:38.908Z,5.60
2023-02-19T23:17:07.285Z,5.60
2023-02-19T23:19:35.331Z,5.60
2023-02-19T23:22:03.292Z,5.60
2023-02-19T23:24:31.495Z,5.60
2023-02-19T23:27:00.645Z,5.60
2023-02-19T23:29:30.778Z,5.60
2023-02-19T23:32:00.308Z,5.60
2023-02-19T23:34:28.051Z,5.60
2023-02-19T23:36:55.748Z,5.60
2023-02-19T23:39:23.563Z,5.60
2023-02-19T23:41:57.020Z,5.60
2023-02-19T23:44:26.088Z,5.60
2023-02-19T23:46:53.789Z,5.60
2023-02-19T23:49:21.859Z,5.60
2023-02-19T23:51:49.489Z,5.60
2023-02-19T23:54:17.146Z,5.50
2023-02-19T23:56:45.000Z,5.50
2023-02-19T23:59:13.302Z,5.50
